createdAt,value
2019-04-07T00:00:42.827Z,100506.17
2019-04-07T00:03:10.542Z,100514.31
2019-04-07T00:05:37.810Z,100519.38
2019-04-07T00:08:04.817Z,100518.13
2019-04-07T00:10:31.618Z,100515.27
2019-04-07T00:12:58.423Z,100513.14
2019-04-07T00:15:25.914Z,100505.81
2019-04-07T00:17:54.305Z,100507.30
2019-04-07T00:20:21.255Z,100506.49
2019-04-07T00:22:49.001Z,100502.72
2019-04-07T00:25:17.722Z,100505.24
2019-04-07T00:27:44.414Z,100510.07
2019-04-07T00:30:12.538Z,100507.39
2019-04-07T00:32:39.249Z,100498.81
2019-04-07T00:35:06.008Z,100508.57
2019-04-07T00:37:33.704Z,100504.00
2019-04-07T00:40:00.433Z,100506.08
2019-04-07T00:42:27.533Z,100503.83
2019-04-07T00:44:54.482Z,100500.23
2019-04-07T00:47:21.781Z,100497.70
2019-04-07T00:49:48.599Z,100497.70
2019-04-07T00:52:17.315Z,100494.08
2019-04-07T00:54:44.448Z,100499.05
2019-04-07T00:57:11.023Z,100502.20
2019-04-07T00:59:37.661Z,100500.86
2019-04-07T01:02:04.427Z,100507.72
2019-04-07T01:04:31.902Z,100507.94
2019-04-07T01:06:59.152Z,100514.06
2019-04-07T01:09:25.867Z,100509.61
2019-04-07T01:11:52.448Z,100511.90
2019-04-07T01:14:21.438Z,100506.08
2019-04-07T01:16:48.991Z,100515.39
2019-04-07T01:19:15.589Z,100511.92
2019-04-07T01:21:42.357Z,100510.73
2019-04-07T01:24:12.286Z,100510.73
2019-04-07T01:26:39.644Z,100516.09
2019-04-07T01:29:06.479Z,100523.86
2019-04-07T01:31:33.367Z,100524.50
2019-04-07T01:34:00.049Z,100514.59
2019-04-07T01:36:28.337Z,100521.20
2019-04-07T01:38:55.045Z,100521.42
2019-04-07T01:41:51.056Z,100525.28
2019-04-07T01:44:31.434Z,100516.95
2019-04-07T01:50:28.589Z,100512.80
2019-04-07T01:53:00.580Z,100517.59
2019-04-07T01:55:52.881Z,100519.87
2019-04-07T01:58:30.800Z,100507.73
2019-04-07T02:01:23.100Z,100520.48
2019-04-07T02:04:00.040Z,100509.02
2019-04-07T02:06:36.554Z,100514.20
2019-04-07T02:09:18.310Z,100520.58
2019-04-07T02:12:03.508Z,100514.87
2019-04-07T02:14:46.714Z,100499.55
2019-04-07T02:17:20.995Z,100509.23
2019-04-07T02:20:01.301Z,100515.59
2019-04-07T02:22:39.315Z,100517.32
2019-04-07T02:25:31.786Z,100511.41
2019-04-07T02:28:07.527Z,100515.65
2019-04-07T02:31:02.758Z,100514.16
2019-04-07T02:33:39.333Z,100522.20
2019-04-07T02:36:23.923Z,100515.83
2019-04-07T02:39:02.939Z,100519.08
2019-04-07T02:41:42.092Z,100515.78
2019-04-07T02:44:27.818Z,100519.39
2019-04-07T02:47:01.746Z,100515.70
2019-04-07T02:49:39.289Z,100521.64
2019-04-07T02:52:13.095Z,100517.11
2019-04-07T02:54:55.851Z,100509.65
2019-04-07T02:57:40.434Z,100509.65
2019-04-07T03:00:22.363Z,100522.77
2019-04-07T03:03:16.958Z,100523.36
2019-04-07T03:05:54.287Z,100525.56
2019-04-07T03:08:42.739Z,100527.30
2019-04-07T03:11:42.825Z,100522.42
2019-04-07T03:14:17.806Z,100518.05
2019-04-07T03:16:59.970Z,100523.05
2019-04-07T03:19:33.377Z,100525.91
2019-04-07T03:22:20.598Z,100519.61
2019-04-07T03:25:04.557Z,100517.88
2019-04-07T03:27:53.589Z,100518.36
2019-04-07T03:30:45.343Z,100514.67
2019-04-07T03:33:31.881Z,100512.71
2019-04-07T03:36:06.851Z,100512.47
2019-04-07T03:38:48.135Z,100517.69
2019-04-07T03:41:20.637Z,100527.94
2019-04-07T03:43:54.990Z,100525.37
2019-04-07T03:46:32.583Z,100525.59
2019-04-07T03:49:11.297Z,100523.78
2019-04-07T03:51:58.092Z,100521.86
2019-04-07T03:54:43.413Z,100520.69
2019-04-07T03:57:20.288Z,100527.58
2019-04-07T04:00:06.623Z,100530.11
2019-04-07T04:02:56.779Z,100523.40
2019-04-07T04:05:34.809Z,100526.72
2019-04-07T04:08:11.313Z,100526.76
2019-04-07T04:10:45.400Z,100521.17
2019-04-07T04:13:20.509Z,100521.63
2019-04-07T04:15:57.092Z,100518.34
2019-04-07T04:18:24.518Z,100522.14
2019-04-07T04:20:52.875Z,100523.30
2019-04-07T04:23:20.180Z,100527.80
2019-04-07T04:25:47.068Z,100525.06
2019-04-07T04:28:16.384Z,100527.88
2019-04-07T04:30:44.114Z,100529.48
2019-04-07T04:33:12.470Z,100531.50
2019-04-07T04:35:39.164Z,100532.52
2019-04-07T04:38:06.151Z,100535.52
2019-04-07T04:40:33.196Z,100535.48
2019-04-07T04:42:59.902Z,100535.10
2019-04-07T04:45:27.525Z,100535.59
2019-04-07T04:47:56.094Z,100543.01
2019-04-07T04:50:23.704Z,100537.16
2019-04-07T04:52:52.340Z,100536.89
2019-04-07T04:55:20.418Z,100540.89
2019-04-07T04:57:47.948Z,100542.20
2019-04-07T05:00:15.835Z,100544.13
2019-04-07T05:02:44.172Z,100549.61
2019-04-07T05:05:11.209Z,100543.52
2019-04-07T05:07:50.087Z,100543.52
2019-04-07T05:10:07.997Z,100552.31
2019-04-07T05:12:35.132Z,100549.38
2019-04-07T05:15:01.964Z,100560.62
2019-04-07T05:17:28.827Z,100563.13
2019-04-07T05:19:55.520Z,100564.53
2019-04-07T05:22:22.552Z,100561.94
2019-04-07T05:24:50.559Z,100561.94
2019-04-07T05:27:17.462Z,100569.72
2019-04-07T05:29:44.691Z,100566.84
2019-04-07T05:32:12.208Z,100571.12
2019-04-07T05:34:42.328Z,100571.92
2019-04-07T05:37:09.858Z,100575.70
2019-04-07T05:39:37.216Z,100575.70
2019-04-07T05:42:04.655Z,100575.83
2019-04-07T05:44:32.016Z,100583.47
2019-04-07T05:46:59.081Z,100584.41
2019-04-07T05:49:25.833Z,100586.59
2019-04-07T05:51:52.558Z,100591.39
2019-04-07T05:54:20.769Z,100597.97
2019-04-07T05:56:48.255Z,100594.44
2019-04-07T05:59:15.656Z,100594.67
2019-04-07T06:01:43.420Z,100601.92
2019-04-07T06:04:14.355Z,100600.94
2019-04-07T06:06:41.460Z,100605.32
2019-04-07T06:09:08.053Z,100608.81
2019-04-07T06:11:36.137Z,100607.13
2019-04-07T06:14:03.191Z,100603.70
2019-04-07T06:16:30.662Z,100604.98
2019-04-07T06:18:57.763Z,100612.42
2019-04-07T06:21:24.555Z,100610.13
2019-04-07T06:23:59.404Z,100610.84
2019-04-07T06:26:25.600Z,100613.33
2019-04-07T06:28:57.385Z,100614.38
2019-04-07T06:31:24.403Z,100610.44
2019-04-07T06:33:49.974Z,100615.19
2019-04-07T06:36:18.678Z,100611.77
2019-04-07T06:38:51.238Z,100611.38
2019-04-07T06:41:16.122Z,100607.92
2019-04-07T06:43:47.967Z,100617.93
2019-04-07T06:46:35.711Z,100619.20
2019-04-07T06:49:38.101Z,100616.91
2019-04-07T06:52:24.795Z,100619.48
2019-04-07T06:55:00.562Z,100613.81
2019-04-07T06:57:46.629Z,100612.86
2019-04-07T07:00:36.511Z,100618.52
2019-04-07T07:03:19.570Z,100624.27
2019-04-07T07:06:08.544Z,100622.84
2019-04-07T07:08:45.869Z,100626.77
2019-04-07T07:11:30.028Z,100630.30
2019-04-07T07:14:34.930Z,100625.98
2019-04-07T07:17:16.966Z,100629.48
2019-04-07T07:20:04.215Z,100629.48
2019-04-07T07:22:45.982Z,100630.20
2019-04-07T07:25:12.393Z,100633.66
2019-04-07T07:27:41.594Z,100635.12
2019-04-07T07:30:09.775Z,100632.54
2019-04-07T07:32:37.399Z,100629.48
2019-04-07T07:35:05.320Z,100634.00
2019-04-07T07:37:33.363Z,100638.70
2019-04-07T07:39:59.956Z,100632.08
2019-04-07T07:42:26.811Z,100642.25
2019-04-07T07:44:53.650Z,100637.45
2019-04-07T07:47:22.535Z,100637.76
2019-04-07T07:49:48.854Z,100640.16
2019-04-07T07:52:18.558Z,100645.23
2019-04-07T07:54:46.114Z,100641.30
2019-04-07T07:57:13.375Z,100642.49
2019-04-07T07:59:40.438Z,100643.52
2019-04-07T08:02:07.583Z,100645.09
2019-04-07T08:04:34.596Z,100637.51
2019-04-07T08:07:02.598Z,100650.67
2019-04-07T08:09:29.359Z,100643.21
2019-04-07T08:11:56.153Z,100645.42
2019-04-07T08:14:22.875Z,100646.39
2019-04-07T08:16:52.391Z,100643.41
2019-04-07T08:19:20.120Z,100646.61
2019-04-07T08:21:50.322Z,100648.72
2019-04-07T08:24:19.022Z,100646.11
2019-04-07T08:26:45.939Z,100652.05
2019-04-07T08:29:13.900Z,100654.42
2019-04-07T08:31:41.030Z,100651.58
2019-04-07T08:34:07.833Z,100656.30
2019-04-07T08:36:34.857Z,100662.59
2019-04-07T08:39:01.855Z,100661.83
2019-04-07T08:41:30.126Z,100656.77
2019-04-07T08:44:00.586Z,100657.08
2019-04-07T08:46:32.283Z,100659.88
2019-04-07T08:49:02.166Z,100657.80
2019-04-07T08:51:31.663Z,100658.42
2019-04-07T08:53:59.772Z,100652.23
2019-04-07T08:56:26.898Z,100652.44
2019-04-07T08:58:54.395Z,100660.25
2019-04-07T09:01:21.846Z,100656.03
2019-04-07T09:03:50.760Z,100657.78
2019-04-07T09:06:17.419Z,100657.56
2019-04-07T09:08:44.057Z,100656.54
2019-04-07T09:11:13.180Z,100663.22
2019-04-07T09:13:41.700Z,100654.80
2019-04-07T09:16:28.025Z,100659.72
2019-04-07T09:19:09.423Z,100654.04
2019-04-07T09:21:50.246Z,100663.22
2019-04-07T09:24:38.153Z,100654.50
2019-04-07T09:27:23.571Z,100652.61
2019-04-07T09:30:01.178Z,100651.78
2019-04-07T09:32:57.846Z,100656.87
2019-04-07T09:35:47.595Z,100652.05
2019-04-07T09:38:33.396Z,100655.81
2019-04-07T09:41:13.167Z,100652.43
2019-04-07T09:44:05.620Z,100653.20
2019-04-07T09:46:53.028Z,100657.07
2019-04-07T09:49:56.620Z,100654.02
2019-04-07T09:52:34.154Z,100649.24
2019-04-07T09:55:16.695Z,100655.11
2019-04-07T09:58:12.019Z,100649.00
2019-04-07T10:00:46.615Z,100645.53
2019-04-07T10:03:31.581Z,100651.78
2019-04-07T10:06:18.925Z,100651.52
2019-04-07T10:09:12.063Z,100653.14
2019-04-07T10:12:00.414Z,100642.28
2019-04-07T10:14:45.352Z,100647.19
2019-04-07T10:17:30.042Z,100646.43
2019-04-07T10:20:22.017Z,100647.81
2019-04-07T10:22:58.684Z,100647.74
2019-04-07T10:26:04.012Z,100640.72
2019-04-07T10:28:51.470Z,100642.97
2019-04-07T10:31:25.476Z,100638.55
2019-04-07T10:34:06.154Z,100635.89
2019-04-07T10:36:59.140Z,100637.54
2019-04-07T10:39:49.752Z,100633.48
2019-04-07T10:42:23.581Z,100629.74
2019-04-07T10:44:58.743Z,100636.87
2019-04-07T10:47:44.812Z,100628.91
2019-04-07T10:50:43.852Z,100627.77
2019-04-07T10:53:31.312Z,100629.91
2019-04-07T10:56:04.473Z,100619.89
2019-04-07T10:58:42.402Z,100624.84
2019-04-07T11:01:22.924Z,100615.41
2019-04-07T11:04:00.654Z,100615.64
2019-04-07T11:07:06.450Z,100614.37
2019-04-07T11:09:54.246Z,100619.93
2019-04-07T11:12:39.836Z,100614.48
2019-04-07T11:15:27.564Z,100604.61
2019-04-07T11:18:17.494Z,100611.97
2019-04-07T11:21:03.477Z,100611.80
2019-04-07T11:23:39.197Z,100614.95
2019-04-07T11:26:25.282Z,100608.95
2019-04-07T11:29:08.521Z,100601.58
2019-04-07T11:31:59.407Z,100604.22
2019-04-07T11:35:04.911Z,100606.27
2019-04-07T11:37:55.585Z,100604.52
2019-04-07T11:40:52.201Z,100605.16
2019-04-07T11:43:29.505Z,100595.83
2019-04-07T11:46:18.762Z,100598.19
2019-04-07T11:48:54.839Z,100594.82
2019-04-07T11:51:29.228Z,100599.81
2019-04-07T11:54:25.162Z,100590.78
2019-04-07T11:57:15.387Z,100601.02
2019-04-07T12:00:14.284Z,100596.58
2019-04-07T12:02:54.473Z,100595.57
2019-04-07T12:05:39.823Z,100598.72
2019-04-07T12:08:18.572Z,100591.98
2019-04-07T12:11:13.598Z,100591.23
2019-04-07T12:13:59.757Z,100586.00
2019-04-07T12:16:41.703Z,100591.62
2019-04-07T12:19:22.810Z,100583.32
2019-04-07T12:22:10.454Z,100586.77
2019-04-07T12:25:00.732Z,100584.49
2019-04-07T12:27:58.121Z,100584.25
2019-04-07T12:30:48.808Z,100574.48
2019-04-07T12:33:22.994Z,100580.28
2019-04-07T12:35:59.085Z,100580.31
2019-04-07T12:38:35.012Z,100575.58
2019-04-07T12:41:23.026Z,100581.19
2019-04-07T12:44:10.406Z,100574.09
2019-04-07T12:46:50.983Z,100573.45
2019-04-07T12:49:43.556Z,100573.42
2019-04-07T12:52:17.375Z,100572.14
2019-04-07T12:54:57.060Z,100578.30
2019-04-07T12:57:30.933Z,100569.64
2019-04-07T13:00:30.894Z,100576.86
2019-04-07T13:03:08.814Z,100575.05
2019-04-07T13:05:54.182Z,100567.02
2019-04-07T13:08:40.704Z,100562.50
2019-04-07T13:11:24.722Z,100576.73
2019-04-07T13:14:03.767Z,100570.71
2019-04-07T13:17:00.197Z,100565.42
2019-04-07T13:19:43.814Z,100572.73
2019-04-07T13:22:19.324Z,100572.96
2019-04-07T13:25:14.329Z,100572.20
2019-04-07T13:27:58.954Z,100571.92
2019-04-07T13:30:50.024Z,100571.87
2019-04-07T13:33:28.971Z,100570.87
2019-04-07T13:36:22.556Z,100566.58
2019-04-07T13:39:08.328Z,100564.58
2019-04-07T13:41:55.721Z,100568.83
2019-04-07T13:44:41.659Z,100559.95
2019-04-07T13:47:28.752Z,100556.00
2019-04-07T13:50:12.787Z,100554.99
2019-04-07T13:53:05.627Z,100557.89
2019-04-07T13:55:48.730Z,100555.00
2019-04-07T13:58:35.708Z,100561.82
2019-04-07T14:01:21.031Z,100553.09
2019-04-07T14:04:16.723Z,100551.54
2019-04-07T14:06:49.680Z,100553.77
2019-04-07T14:09:35.362Z,100554.45
2019-04-07T14:12:18.924Z,100547.62
2019-04-07T14:15:00.215Z,100547.81
2019-04-07T14:17:46.616Z,100546.56
2019-04-07T14:20:24.463Z,100548.98
2019-04-07T14:23:12.018Z,100545.22
2019-04-07T14:25:47.061Z,100545.86
2019-04-07T14:28:31.040Z,100548.96
2019-04-07T14:31:07.639Z,100545.40
2019-04-07T14:33:57.335Z,100549.31
2019-04-07T14:36:39.205Z,100550.44
2019-04-07T14:39:12.838Z,100546.78
2019-04-07T14:42:04.604Z,100549.89
2019-04-07T14:44:47.943Z,100544.91
2019-04-07T14:47:41.427Z,100560.09
2019-04-07T14:50:42.862Z,100552.82
2019-04-07T14:53:45.398Z,100555.30
2019-04-07T14:56:22.561Z,100557.87
2019-04-07T14:58:58.561Z,100560.59
2019-04-07T15:01:36.878Z,100555.65
2019-04-07T15:04:05.143Z,100553.13
2019-04-07T15:06:34.535Z,100553.27
2019-04-07T15:09:10.185Z,100553.36
2019-04-07T15:11:51.012Z,100551.50
2019-04-07T15:14:18.092Z,100554.70
2019-04-07T15:16:45.059Z,100554.86
2019-04-07T15:19:11.704Z,100558.28
2019-04-07T15:21:39.030Z,100557.38
2019-04-07T15:24:07.217Z,100548.58
2019-04-07T15:26:34.735Z,100551.20
2019-04-07T15:29:04.679Z,100549.66
2019-04-07T15:31:33.120Z,100550.04
2019-04-07T15:34:06.362Z,100549.02
2019-04-07T15:36:31.541Z,100551.95
2019-04-07T15:38:59.547Z,100558.77
2019-04-07T15:41:27.577Z,100552.89
2019-04-07T15:43:55.266Z,100556.70
2019-04-07T15:46:22.517Z,100557.25
2019-04-07T15:48:49.858Z,100556.80
2019-04-07T15:51:17.458Z,100558.07
2019-04-07T15:53:49.768Z,100557.75
2019-04-07T15:56:15.668Z,100559.63
2019-04-07T15:58:41.952Z,100561.48
2019-04-07T16:01:10.440Z,100559.08
2019-04-07T16:03:38.793Z,100560.34
2019-04-07T16:06:06.067Z,100566.72
2019-04-07T16:08:33.726Z,100567.45
2019-04-07T16:11:01.905Z,100564.48
2019-04-07T16:13:29.238Z,100565.84
2019-04-07T16:15:56.154Z,100567.30
2019-04-07T16:18:23.253Z,100567.95
2019-04-07T16:20:50.686Z,100566.48
2019-04-07T16:23:19.267Z,100579.22
2019-04-07T16:25:47.502Z,100574.22
2019-04-07T16:28:16.033Z,100571.78
2019-04-07T16:30:43.353Z,100572.56
2019-04-07T16:33:10.082Z,100574.06
2019-04-07T16:35:37.132Z,100573.84
2019-04-07T16:38:05.211Z,100569.98
2019-04-07T16:40:32.420Z,100569.20
2019-04-07T16:43:09.552Z,100572.14
2019-04-07T16:45:28.284Z,100578.39
2019-04-07T16:47:55.059Z,100576.45
2019-04-07T16:50:21.638Z,100581.88
2019-04-07T16:52:48.528Z,100576.03
2019-04-07T16:55:36.884Z,100576.31
2019-04-07T16:58:04.573Z,100579.47
2019-04-07T17:00:31.265Z,100590.02
2019-04-07T17:02:57.753Z,100588.27
2019-04-07T17:05:25.599Z,100586.20
2019-04-07T17:07:54.827Z,100585.67
2019-04-07T17:10:21.132Z,100588.98
2019-04-07T17:12:49.589Z,100587.28
2019-04-07T17:15:16.255Z,100594.59
2019-04-07T17:17:43.462Z,100587.88
2019-04-07T17:20:10.239Z,100598.09
2019-04-07T17:22:38.209Z,100592.26
2019-04-07T17:25:09.915Z,100595.56
2019-04-07T17:27:40.885Z,100598.62
2019-04-07T17:30:05.434Z,100592.98
2019-04-07T17:32:35.829Z,100596.89
2019-04-07T17:35:07.899Z,100597.88
2019-04-07T17:37:37.856Z,100600.89
2019-04-07T17:40:15.635Z,100604.55
2019-04-07T17:42:50.769Z,100602.84
2019-04-07T17:45:37.478Z,100606.17
2019-04-07T17:48:23.342Z,100610.64
2019-04-07T17:51:06.330Z,100611.13
2019-04-07T17:53:49.585Z,100608.45
2019-04-07T17:56:30.330Z,100612.61
2019-04-07T17:59:22.071Z,100613.36
2019-04-07T18:02:15.091Z,100613.27
2019-04-07T18:05:04.441Z,100612.01
2019-04-07T18:07:50.689Z,100613.98
2019-04-07T18:10:29.487Z,100617.06
2019-04-07T18:13:16.607Z,100620.45
2019-04-07T18:16:01.692Z,100622.17
2019-04-07T18:18:36.674Z,100625.61
2019-04-07T18:21:13.407Z,100630.12
2019-04-07T18:24:08.302Z,100635.84
2019-04-07T18:26:53.675Z,100634.50
2019-04-07T18:29:48.030Z,100638.06
2019-04-07T18:32:43.113Z,100638.83
2019-04-07T18:35:32.638Z,100656.63
2019-04-07T18:38:17.386Z,100650.18
2019-04-07T18:41:10.116Z,100658.28
2019-04-07T18:43:57.818Z,100667.48
2019-04-07T18:46:27.952Z,100667.92
2019-04-07T18:49:18.035Z,100668.00
2019-04-07T18:52:01.672Z,100685.57
2019-04-07T18:54:39.934Z,100685.09
2019-04-07T18:57:35.979Z,100690.37
2019-04-07T19:00:42.319Z,100693.24
2019-04-07T19:03:45.297Z,100692.56
2019-04-07T19:06:31.259Z,100693.81
2019-04-07T19:09:08.086Z,100692.09
2019-04-07T19:11:47.229Z,100689.80
2019-04-07T19:14:44.308Z,100692.98
2019-04-07T19:17:27.267Z,100698.53
2019-04-07T19:20:34.129Z,100696.49
2019-04-07T19:23:18.465Z,100700.97
2019-04-07T19:25:59.782Z,100695.72
2019-04-07T19:28:49.762Z,100692.61
2019-04-07T19:31:48.018Z,100698.02
2019-04-07T19:34:32.812Z,100697.55
2019-04-07T19:37:22.463Z,100692.33
2019-04-07T19:40:04.341Z,100699.66
2019-04-07T19:42:48.227Z,100694.48
2019-04-07T19:45:32.994Z,100707.64
2019-04-07T19:48:28.803Z,100701.91
2019-04-07T19:51:14.288Z,100711.18
2019-04-07T19:54:08.323Z,100712.20
2019-04-07T19:56:42.444Z,100712.95
2019-04-07T19:59:26.779Z,100720.66
2019-04-07T20:02:13.433Z,100717.91
2019-04-07T20:05:04.157Z,100721.33
2019-04-07T20:07:50.824Z,100718.33
2019-04-07T20:10:38.018Z,100718.98
2019-04-07T20:13:20.000Z,100717.94
2019-04-07T20:15:59.185Z,100720.02
2019-04-07T20:18:37.400Z,100725.77
2019-04-07T20:21:35.104Z,100729.59
2019-04-07T20:24:11.275Z,100724.20
2019-04-07T20:26:58.740Z,100725.34
2019-04-07T20:29:44.762Z,100728.25
2019-04-07T20:32:34.751Z,100731.87
2019-04-07T20:35:19.713Z,100729.77
2019-04-07T20:38:07.091Z,100725.97
2019-04-07T20:40:59.919Z,100727.22
2019-04-07T20:43:45.187Z,100737.33
2019-04-07T20:46:23.800Z,100729.91
2019-04-07T20:49:13.628Z,100732.97
2019-04-07T20:52:16.995Z,100728.33
2019-04-07T20:55:09.447Z,100730.44
2019-04-07T20:58:14.608Z,100732.53
2019-04-07T21:00:57.692Z,100734.63
2019-04-07T21:03:45.075Z,100733.00
2019-04-07T21:06:40.557Z,100731.49
2019-04-07T21:09:21.562Z,100727.86
2019-04-07T21:11:59.617Z,100734.06
2019-04-07T21:14:45.348Z,100728.63
2019-04-07T21:17:32.477Z,100732.59
2019-04-07T21:20:15.575Z,100732.31
2019-04-07T21:23:01.734Z,100734.33
2019-04-07T21:25:43.346Z,100735.47
2019-04-07T21:28:28.943Z,100737.49
2019-04-07T21:31:03.412Z,100736.35
2019-04-07T21:33:44.338Z,100736.00
2019-04-07T21:36:30.071Z,100741.39
2019-04-07T21:39:08.380Z,100743.89
2019-04-07T21:42:00.497Z,100743.52
2019-04-07T21:44:50.194Z,100746.67
2019-04-07T21:47:58.002Z,100752.78
2019-04-07T21:50:44.789Z,100742.48
2019-04-07T21:53:41.035Z,100749.02
2019-04-07T21:56:24.788Z,100744.11
2019-04-07T21:59:07.745Z,100743.17
2019-04-07T22:02:03.207Z,100750.83
2019-04-07T22:04:50.626Z,100749.67
2019-04-07T22:07:27.647Z,100756.95
2019-04-07T22:09:58.847Z,100750.14
2019-04-07T22:12:29.818Z,100744.98
2019-04-07T22:14:56.289Z,100753.06
2019-04-07T22:17:23.394Z,100752.73
2019-04-07T22:19:50.212Z,100751.98
2019-04-07T22:22:16.903Z,100750.83
2019-04-07T22:24:44.835Z,100756.03
2019-04-07T22:27:11.666Z,100749.27
2019-04-07T22:29:38.372Z,100749.86
2019-04-07T22:32:05.308Z,100742.73
2019-04-07T22:34:33.781Z,100754.80
2019-04-07T22:37:00.935Z,100745.12
2019-04-07T22:39:29.795Z,100742.83
2019-04-07T22:41:57.164Z,100743.78
2019-04-07T22:44:24.761Z,100745.51
2019-04-07T22:46:52.711Z,100749.74
2019-04-07T22:49:19.839Z,100749.40
2019-04-07T22:51:48.285Z,100745.67
2019-04-07T22:54:16.726Z,100742.14
2019-04-07T22:56:44.572Z,100742.48
2019-04-07T22:59:12.794Z,100745.24
2019-04-07T23:01:39.645Z,100739.80
2019-04-07T23:04:07.105Z,100738.20
2019-04-07T23:06:34.233Z,100738.51
2019-04-07T23:09:01.550Z,100740.84
2019-04-07T23:11:30.013Z,100742.27
2019-04-07T23:13:56.747Z,100747.02
2019-04-07T23:16:24.032Z,100739.41
2019-04-07T23:18:52.080Z,100743.73
2019-04-07T23:21:19.246Z,100737.23
2019-04-07T23:23:46.233Z,100742.17
2019-04-07T23:26:13.865Z,100730.98
2019-04-07T23:28:40.577Z,100744.61
2019-04-07T23:31:07.530Z,100734.45
2019-04-07T23:33:34.780Z,100737.20
2019-04-07T23:36:01.823Z,100731.95
2019-04-07T23:38:28.943Z,100731.95
2019-04-07T23:40:55.671Z,100743.18
2019-04-07T23:43:22.440Z,100736.81
2019-04-07T23:45:49.651Z,100737.20
2019-04-07T23:48:17.984Z,100739.61
2019-04-07T23:50:47.733Z,100741.05
2019-04-07T23:53:50.807Z,100734.94
2019-04-07T23:56:17.709Z,100744.25
2019-04-07T23:58:45.559Z,100741.39
